sensor_id;sensor_type;location;lat;lon;timestamp;pressure;altitude;pressure_sealevel;temperature;humidity
54978;BME280;40873;47.522;19.106;2024-02-21T00:01:35;101109.41;;;7.06;100.00
54978;BME280;40873;47.522;19.106;2024-02-21T00:04:02;101115.44;;;7.08;100.00
54978;BME280;40873;47.522;19.106;2024-02-21T00:06:29;101108.41;;;7.10;100.00
54978;BME280;40873;47.522;19.106;2024-02-21T00:08:56;101101.47;;;7.07;100.00
54978;BME280;40873;47.522;19.106;2024-02-21T00:11:23;101105.66;;;7.13;100.00
54978;BME280;40873;47.522;19.106;2024-02-21T00:13:51;101112.56;;;7.15;100.00
54978;BME280;40873;47.522;19.106;2024-02-21T00:16:21;101102.50;;;7.03;100.00
54978;BME280;40873;47.522;19.106;2024-02-21T00:18:49;101101.75;;;7.00;100.00
54978;BME280;40873;47.522;19.106;2024-02-21T00:21:15;101091.19;;;7.01;100.00
54978;BME280;40873;47.522;19.106;2024-02-21T00:23:45;101086.56;;;7.09;100.00
54978;BME280;40873;47.522;19.106;2024-02-21T00:26:13;101089.19;;;7.09;100.00
54978;BME280;40873;47.522;19.106;2024-02-21T00:28:40;101080.53;;;7.06;100.00
54978;BME280;40873;47.522;19.106;2024-02-21T00:31:07;101080.44;;;7.09;100.00
54978;BME280;40873;47.522;19.106;2024-02-21T00:33:34;101078.72;;;7.08;100.00
54978;BME280;40873;47.522;19.106;2024-02-21T00:36:01;101077.13;;;7.04;100.00
54978;BME280;40873;47.522;19.106;2024-02-21T00:38:28;101081.59;;;7.00;100.00
54978;BME280;40873;47.522;19.106;2024-02-21T00:40:55;101083.38;;;7.00;100.00
54978;BME280;40873;47.522;19.106;2024-02-21T00:43:23;101070.81;;;7.09;100.00
54978;BME280;40873;47.522;19.106;2024-02-21T00:45:51;101078.13;;;7.00;100.00
54978;BME280;40873;47.522;19.106;2024-02-21T00:48:19;101072.09;;;6.98;100.00
54978;BME280;40873;47.522;19.106;2024-02-21T00:50:46;101071.38;;;6.93;100.00
54978;BME280;40873;47.522;19.106;2024-02-21T00:53:14;101070.78;;;6.84;100.00
54978;BME280;40873;47.522;19.106;2024-02-21T00:55:40;101081.13;;;6.89;100.00
54978;BME280;40873;47.522;19.106;2024-02-21T00:58:08;101076.94;;;6.83;100.00
54978;BME280;40873;47.522;19.106;2024-02-21T01:00:35;101073.47;;;6.83;100.00
54978;BME280;40873;47.522;19.106;2024-02-21T01:03:02;101074.31;;;6.83;100.00
54978;BME280;40873;47.522;19.106;2024-02-21T01:05:29;101068.22;;;6.83;100.00
54978;BME280;40873;47.522;19.106;2024-02-21T01:07:56;101067.44;;;6.79;100.00
54978;BME280;40873;47.522;19.106;2024-02-21T01:10:23;101066.34;;;6.86;100.00
54978;BME280;40873;47.522;19.106;2024-02-21T01:12:50;101076.81;;;6.86;100.00
54978;BME280;40873;47.522;19.106;2024-02-21T01:15:17;101070.13;;;6.78;100.00
54978;BME280;40873;47.522;19.106;2024-02-21T01:17:45;101070.94;;;6.80;100.00
54978;BME280;40873;47.522;19.106;2024-02-21T01:20:12;101070.88;;;6.81;100.00
54978;BME280;40873;47.522;19.106;2024-02-21T01:22:39;101071.03;;;6.77;100.00
54978;BME280;40873;47.522;19.106;2024-02-21T01:25:06;101074.13;;;6.90;100.00
54978;BME280;40873;47.522;19.106;2024-02-21T01:27:34;101080.94;;;6.94;100.00
54978;BME280;40873;47.522;19.106;2024-02-21T01:30:01;101083.91;;;6.84;100.00
54978;BME280;40873;47.522;19.106;2024-02-21T01:32:28;101089.00;;;6.89;100.00
54978;BME280;40873;47.522;19.106;2024-02-21T01:34:55;101071.75;;;6.82;100.00
54978;BME280;40873;47.522;19.106;2024-02-21T01:37:22;101067.56;;;6.76;100.00
54978;BME280;40873;47.522;19.106;2024-02-21T01:39:53;101063.13;;;6.78;100.00
54978;BME280;40873;47.522;19.106;2024-02-21T01:42:20;101063.44;;;6.94;100.00
54978;BME280;40873;47.522;19.106;2024-02-21T01:44:47;101063.00;;;6.81;100.00
54978;BME280;40873;47.522;19.106;2024-02-21T01:47:14;101064.09;;;6.76;100.00
54978;BME280;40873;47.522;19.106;2024-02-21T01:49:41;101061.47;;;6.76;100.00
54978;BME280;40873;47.522;19.106;2024-02-21T01:52:09;101058.19;;;6.69;100.00
54978;BME280;40873;47.522;19.106;2024-02-21T01:54:37;101063.44;;;6.69;100.00
54978;BME280;40873;47.522;19.106;2024-02-21T01:57:05;101060.88;;;6.66;100.00
54978;BME280;40873;47.522;19.106;2024-02-21T01:59:32;101058.00;;;6.75;100.00
54978;BME280;40873;47.522;19.106;2024-02-21T02:02:00;101062.50;;;6.70;100.00
54978;BME280;40873;47.522;19.106;2024-02-21T02:04:27;101057.59;;;6.59;100.00
54978;BME280;40873;47.522;19.106;2024-02-21T02:06:55;101060.34;;;6.56;100.00
54978;BME280;40873;47.522;19.106;2024-02-21T02:09:22;101048.81;;;6.62;100.00
54978;BME280;40873;47.522;19.106;2024-02-21T02:11:49;101060.34;;;6.56;100.00
54978;BME280;40873;47.522;19.106;2024-02-21T02:14:17;101057.72;;;6.56;100.00
54978;BME280;40873;47.522;19.106;2024-02-21T02:16:46;101057.06;;;6.50;100.00
54978;BME280;40873;47.522;19.106;2024-02-21T02:19:14;101059.56;;;6.53;100.00
54978;BME280;40873;47.522;19.106;2024-02-21T02:21:46;101061.66;;;6.43;100.00
54978;BME280;40873;47.522;19.106;2024-02-21T02:24:21;101053.88;;;6.40;100.00
54978;BME280;40873;47.522;19.106;2024-02-21T02:26:48;101065.38;;;6.36;100.00
54978;BME280;40873;47.522;19.106;2024-02-21T02:29:15;101059.28;;;6.36;100.00
54978;BME280;40873;47.522;19.106;2024-02-21T02:31:43;101048.78;;;6.36;100.00
54978;BME280;40873;47.522;19.106;2024-02-21T02:34:10;101055.75;;;6.37;100.00
54978;BME280;40873;47.522;19.106;2024-02-21T02:36:38;101053.63;;;6.48;100.00
54978;BME280;40873;47.522;19.106;2024-02-21T02:39:05;101049.63;;;6.36;100.00
54978;BME280;40873;47.522;19.106;2024-02-21T02:41:35;101049.78;;;6.31;100.00
54978;BME280;40873;47.522;19.106;2024-02-21T02:44:02;101048.91;;;6.31;100.00
54978;BME280;40873;47.522;19.106;2024-02-21T02:46:29;101056.72;;;6.32;100.00
54978;BME280;40873;47.522;19.106;2024-02-21T02:48:56;101051.47;;;6.32;100.00
54978;BME280;40873;47.522;19.106;2024-02-21T02:51:23;101045.25;;;6.37;100.00
54978;BME280;40873;47.522;19.106;2024-02-21T02:53:50;101046.16;;;6.36;100.00
54978;BME280;40873;47.522;19.106;2024-02-21T02:56:18;101037.75;;;6.26;100.00
54978;BME280;40873;47.522;19.106;2024-02-21T02:58:45;101038.63;;;6.25;100.00
54978;BME280;40873;47.522;19.106;2024-02-21T03:01:12;101037.81;;;6.23;100.00
54978;BME280;40873;47.522;19.106;2024-02-21T03:03:40;101036.41;;;6.13;100.00
54978;BME280;40873;47.522;19.106;2024-02-21T03:06:07;101033.81;;;6.11;100.00
54978;BME280;40873;47.522;19.106;2024-02-21T03:08:34;101042.41;;;6.16;100.00
54978;BME280;40873;47.522;19.106;2024-02-21T03:11:01;101041.72;;;6.10;100.00
54978;BME280;40873;47.522;19.106;2024-02-21T03:13:28;101039.97;;;6.10;100.00
54978;BME280;40873;47.522;19.106;2024-02-21T03:15:56;101041.97;;;6.02;100.00
54978;BME280;40873;47.522;19.106;2024-02-21T03:18:22;101049.25;;;5.92;100.00
54978;BME280;40873;47.522;19.106;2024-02-21T03:20:50;101041.34;;;5.94;100.00
54978;BME280;40873;47.522;19.106;2024-02-21T03:23:17;101041.34;;;5.94;100.00
54978;BME280;40873;47.522;19.106;2024-02-21T03:25:44;101044.69;;;5.99;100.00
54978;BME280;40873;47.522;19.106;2024-02-21T03:28:11;101040.16;;;6.04;100.00
54978;BME280;40873;47.522;19.106;2024-02-21T03:30:38;101049.78;;;6.03;100.00
54978;BME280;40873;47.522;19.106;2024-02-21T03:33:05;101045.50;;;6.01;100.00
54978;BME280;40873;47.522;19.106;2024-02-21T03:35:33;101044.59;;;6.02;100.00
54978;BME280;40873;47.522;19.106;2024-02-21T03:37:59;101057.13;;;5.92;100.00
54978;BME280;40873;47.522;19.106;2024-02-21T03:40:27;101049.34;;;5.88;100.00
54978;BME280;40873;47.522;19.106;2024-02-21T03:42:54;101045.16;;;5.82;100.00
54978;BME280;40873;47.522;19.106;2024-02-21T03:45:21;101043.50;;;5.80;100.00
54978;BME280;40873;47.522;19.106;2024-02-21T03:47:48;101045.47;;;5.71;100.00
54978;BME280;40873;47.522;19.106;2024-02-21T03:50:16;101043.78;;;5.69;100.00
54978;BME280;40873;47.522;19.106;2024-02-21T03:52:45;101039.47;;;5.68;100.00
54978;BME280;40873;47.522;19.106;2024-02-21T03:55:12;101038.72;;;5.63;100.00
54978;BME280;40873;47.522;19.106;2024-02-21T03:57:39;101042.22;;;5.63;100.00
54978;BME280;40873;47.522;19.106;2024-02-21T04:00:07;101055.56;;;5.54;100.00
54978;BME280;40873;47.522;19.106;2024-02-21T04:02:37;101052.94;;;5.54;100.00
54978;BME280;40873;47.522;19.106;2024-02-21T04:05:05;101048.63;;;5.53;100.00
54978;BME280;40873;47.522;19.106;2024-02-21T04:07:32;101057.41;;;5.50;100.00
54978;BME280;40873;47.522;19.106;2024-02-21T04:10:00;101045.19;;;5.51;100.00
54978;BME280;40873;47.522;19.106;2024-02-21T04:12:27;101055.78;;;5.46;100.00
54978;BME280;40873;47.522;19.106;2024-02-21T04:14:54;101047.13;;;5.44;100.00
54978;BME280;40873;47.522;19.106;2024-02-21T04:17:21;101054.88;;;5.47;100.00
54978;BME280;40873;47.522;19.106;2024-02-21T04:19:48;101053.91;;;5.52;100.00
54978;BME280;40873;47.522;19.106;2024-02-21T04:22:15;101054.88;;;5.47;100.00
54978;BME280;40873;47.522;19.106;2024-02-21T04:24:42;101050.66;;;5.42;100.00
54978;BME280;40873;47.522;19.106;2024-02-21T04:27:12;101053.22;;;5.45;100.00
54978;BME280;40873;47.522;19.106;2024-02-21T04:29:39;101049.06;;;5.38;100.00
54978;BME280;40873;47.522;19.106;2024-02-21T04:32:06;101043.13;;;5.31;100.00
54978;BME280;40873;47.522;19.106;2024-02-21T04:34:33;101044.88;;;5.31;100.00
54978;BME280;40873;47.522;19.106;2024-02-21T04:37:00;101051.66;;;5.38;100.00
54978;BME280;40873;47.522;19.106;2024-02-21T04:39:28;101043.88;;;5.36;100.00
54978;BME280;40873;47.522;19.106;2024-02-21T04:41:54;101047.50;;;5.31;100.00
54978;BME280;40873;47.522;19.106;2024-02-21T04:44:22;101042.28;;;5.31;100.00
54978;BME280;40873;47.522;19.106;2024-02-21T04:46:49;101046.56;;;5.33;100.00
54978;BME280;40873;47.522;19.106;2024-02-21T04:49:16;101041.19;;;5.38;100.00
54978;BME280;40873;47.522;19.106;2024-02-21T04:51:44;101049.91;;;5.38;100.00
54978;BME280;40873;47.522;19.106;2024-02-21T04:54:11;101042.91;;;5.39;100.00
54978;BME280;40873;47.522;19.106;2024-02-21T04:56:38;101049.09;;;5.36;100.00
54978;BME280;40873;47.522;19.106;2024-02-21T04:59:05;101048.25;;;5.36;100.00
54978;BME280;40873;47.522;19.106;2024-02-21T05:01:32;101055.22;;;5.35;100.00
54978;BME280;40873;47.522;19.106;2024-02-21T05:03:59;101054.41;;;5.33;100.00
54978;BME280;40873;47.522;19.106;2024-02-21T05:06:26;101051.94;;;5.29;100.00
54978;BME280;40873;47.522;19.106;2024-02-21T05:08:54;101046.72;;;5.27;100.00
54978;BME280;40873;47.522;19.106;2024-02-21T05:11:22;101052.09;;;5.21;100.00
54978;BME280;40873;47.522;19.106;2024-02-21T05:13:50;101046.06;;;5.19;100.00
54978;BME280;40873;47.522;19.106;2024-02-21T05:16:17;101060.91;;;5.18;100.00
54978;BME280;40873;47.522;19.106;2024-02-21T05:18:46;101053.97;;;5.17;100.00
54978;BME280;40873;47.522;19.106;2024-02-21T05:21:14;101053.22;;;5.12;100.00
54978;BME280;40873;47.522;19.106;2024-02-21T05:23:41;101050.53;;;5.15;100.00
54978;BME280;40873;47.522;19.106;2024-02-21T05:26:08;101046.19;;;5.14;100.00
54978;BME280;40873;47.522;19.106;2024-02-21T05:28:36;101037.47;;;5.15;100.00
54978;BME280;40873;47.522;19.106;2024-02-21T05:31:03;101046.28;;;5.11;100.00
54978;BME280;40873;47.522;19.106;2024-02-21T05:33:33;101039.25;;;5.13;100.00
54978;BME280;40873;47.522;19.106;2024-02-21T05:36:00;101048.00;;;5.12;100.00
54978;BME280;40873;47.522;19.106;2024-02-21T05:38:27;101042.91;;;5.06;100.00
54978;BME280;40873;47.522;19.106;2024-02-21T05:40:54;101039.41;;;5.07;100.00
54978;BME280;40873;47.522;19.106;2024-02-21T05:43:21;101049.88;;;5.07;100.00
54978;BME280;40873;47.522;19.106;2024-02-21T05:45:48;101054.28;;;5.05;100.00
54978;BME280;40873;47.522;19.106;2024-02-21T05:48:18;101051.75;;;5.02;100.00
54978;BME280;40873;47.522;19.106;2024-02-21T05:50:45;101054.34;;;5.04;100.00
54978;BME280;40873;47.522;19.106;2024-02-21T05:53:12;101058.59;;;5.08;100.00
54978;BME280;40873;47.522;19.106;2024-02-21T05:55:40;101057.75;;;5.06;100.00
54978;BME280;40873;47.522;19.106;2024-02-21T05:58:08;101064.00;;;5.00;100.00
54978;BME280;40873;47.522;19.106;2024-02-21T06:00:38;101071.84;;;5.02;100.00
54978;BME280;40873;47.522;19.106;2024-02-21T06:03:05;101060.56;;;4.98;100.00
54978;BME280;40873;47.522;19.106;2024-02-21T06:05:37;101080.47;;;5.04;100.00
54978;BME280;40873;47.522;19.106;2024-02-21T06:08:05;101063.97;;;5.02;100.00
54978;BME280;40873;47.522;19.106;2024-02-21T06:10:32;101069.22;;;5.00;100.00
54978;BME280;40873;47.522;19.106;2024-02-21T06:12:59;101064.75;;;5.05;100.00
54978;BME280;40873;47.522;19.106;2024-02-21T06:15:26;101067.31;;;5.08;100.00
54978;BME280;40873;47.522;19.106;2024-02-21T06:17:54;101074.16;;;5.12;100.00
54978;BME280;40873;47.522;19.106;2024-02-21T06:20:23;101079.16;;;5.20;100.00
54978;BME280;40873;47.522;19.106;2024-02-21T06:22:51;101072.28;;;5.17;100.00
54978;BME280;40873;47.522;19.106;2024-02-21T06:25:18;101080.88;;;5.21;100.00
54978;BME280;40873;47.522;19.106;2024-02-21T06:27:45;101081.69;;;5.25;100.00
54978;BME280;40873;47.522;19.106;2024-02-21T06:30:12;101081.41;;;5.34;100.00
54978;BME280;40873;47.522;19.106;2024-02-21T06:32:39;101080.56;;;5.33;100.00
54978;BME280;40873;47.522;19.106;2024-02-21T06:35:06;101080.56;;;5.33;100.00
54978;BME280;40873;47.522;19.106;2024-02-21T06:37:34;101078.91;;;5.31;100.00
54978;BME280;40873;47.522;19.106;2024-02-21T06:40:01;101071.00;;;5.32;100.00
54978;BME280;40873;47.522;19.106;2024-02-21T06:42:28;101082.06;;;5.42;100.00
54978;BME280;40873;47.522;19.106;2024-02-21T06:44:56;101088.09;;;5.45;100.00
54978;BME280;40873;47.522;19.106;2024-02-21T06:47:23;101078.38;;;5.50;100.00
54978;BME280;40873;47.522;19.106;2024-02-21T06:49:51;101080.03;;;5.53;100.00
54978;BME280;40873;47.522;19.106;2024-02-21T06:52:18;101079.91;;;5.56;100.00
54978;BME280;40873;47.522;19.106;2024-02-21T06:54:49;101083.28;;;5.61;100.00
54978;BME280;40873;47.522;19.106;2024-02-21T06:57:16;101086.59;;;5.68;100.00
54978;BME280;40873;47.522;19.106;2024-02-21T06:59:44;101084.44;;;5.82;100.00
54978;BME280;40873;47.522;19.106;2024-02-21T07:02:11;101095.59;;;5.89;100.00
54978;BME280;40873;47.522;19.106;2024-02-21T07:04:38;101093.59;;;5.98;100.00
54978;BME280;40873;47.522;19.106;2024-02-21T07:07:06;101096.91;;;6.03;100.00
54978;BME280;40873;47.522;19.106;2024-02-21T07:09:33;101093.94;;;6.16;100.00
54978;BME280;40873;47.522;19.106;2024-02-21T07:12:01;101101.44;;;6.28;100.00
54978;BME280;40873;47.522;19.106;2024-02-21T07:14:28;101100.19;;;6.40;100.00
54978;BME280;40873;47.522;19.106;2024-02-21T07:16:55;101098.41;;;6.42;100.00
54978;BME280;40873;47.522;19.106;2024-02-21T07:19:23;101097.28;;;6.49;100.00
54978;BME280;40873;47.522;19.106;2024-02-21T07:21:51;101103.00;;;6.62;100.00
54978;BME280;40873;47.522;19.106;2024-02-21T07:24:18;101118.69;;;6.63;100.00
54978;BME280;40873;47.522;19.106;2024-02-21T07:26:45;101116.88;;;6.65;100.00
54978;BME280;40873;47.522;19.106;2024-02-21T07:29:12;101114.84;;;6.73;100.00
54978;BME280;40873;47.522;19.106;2024-02-21T07:31:43;101116.72;;;6.70;100.00
54978;BME280;40873;47.522;19.106;2024-02-21T07:34:11;101120.09;;;6.73;100.00
54978;BME280;40873;47.522;19.106;2024-02-21T07:36:38;101125.88;;;6.84;100.00
54978;BME280;40873;47.522;19.106;2024-02-21T07:39:05;101128.28;;;6.91;100.00
54978;BME280;40873;47.522;19.106;2024-02-21T07:41:32;101126.97;;;7.04;100.00
54978;BME280;40873;47.522;19.106;2024-02-21T07:44:01;101120.34;;;7.19;100.00
54978;BME280;40873;47.522;19.106;2024-02-21T07:46:28;101124.53;;;7.24;100.00
54978;BME280;40873;47.522;19.106;2024-02-21T07:48:55;101129.81;;;7.23;100.00
54978;BME280;40873;47.522;19.106;2024-02-21T07:51:22;101125.28;;;7.28;100.00
54978;BME280;40873;47.522;19.106;2024-02-21T07:53:56;101131.63;;;7.47;100.00
54978;BME280;40873;47.522;19.106;2024-02-21T07:56:27;101138.84;;;7.65;100.00
54978;BME280;40873;47.522;19.106;2024-02-21T07:58:58;101138.16;;;7.84;100.00
54978;BME280;40873;47.522;19.106;2024-02-21T08:01:25;101131.97;;;7.86;100.00
54978;BME280;40873;47.522;19.106;2024-02-21T08:03:52;101130.75;;;7.95;100.00
54978;BME280;40873;47.522;19.106;2024-02-21T08:06:20;101131.34;;;8.03;100.00
54978;BME280;40873;47.522;19.106;2024-02-21T08:08:46;101124.94;;;8.10;100.00
54978;BME280;40873;47.522;19.106;2024-02-21T08:11:14;101124.22;;;8.07;100.00
54978;BME280;40873;47.522;19.106;2024-02-21T08:13:41;101114.41;;;8.10;100.00
54978;BME280;40873;47.522;19.106;2024-02-21T08:16:08;101128.81;;;8.23;100.00
54978;BME280;40873;47.522;19.106;2024-02-21T08:18:35;101115.72;;;8.45;100.00
54978;BME280;40873;47.522;19.106;2024-02-21T08:21:05;101116.34;;;8.52;100.00
54978;BME280;40873;47.522;19.106;2024-02-21T08:23:32;101110.22;;;8.51;100.00
54978;BME280;40873;47.522;19.106;2024-02-21T08:25:59;101112.16;;;8.46;100.00
54978;BME280;40873;47.522;19.106;2024-02-21T08:28:26;101113.94;;;8.68;100.00
54978;BME280;40873;47.522;19.106;2024-02-21T08:30:57;101114.84;;;8.89;100.00
54978;BME280;40873;47.522;19.106;2024-02-21T08:33:24;101108.16;;;9.22;100.00
54978;BME280;40873;47.522;19.106;2024-02-21T08:35:52;101112.84;;;9.56;100.00
54978;BME280;40873;47.522;19.106;2024-02-21T08:38:19;101116.41;;;9.55;100.00
54978;BME280;40873;47.522;19.106;2024-02-21T08:40:46;101111.34;;;9.90;100.00
54978;BME280;40873;47.522;19.106;2024-02-21T08:43:13;101122.72;;;9.91;100.00
54978;BME280;40873;47.522;19.106;2024-02-21T08:45:40;101118.34;;;10.10;100.00
54978;BME280;40873;47.522;19.106;2024-02-21T08:48:07;101108.56;;;10.12;100.00
54978;BME280;40873;47.522;19.106;2024-02-21T08:50:35;101112.88;;;9.94;100.00
54978;BME280;40873;47.522;19.106;2024-02-21T08:53:03;101108.81;;;9.87;100.00
54978;BME280;40873;47.522;19.106;2024-02-21T08:55:30;101106.50;;;10.00;100.00
54978;BME280;40873;47.522;19.106;2024-02-21T08:57:57;101111.63;;;10.03;100.00
54978;BME280;40873;47.522;19.106;2024-02-21T09:00:24;101111.63;;;10.03;100.00
54978;BME280;40873;47.522;19.106;2024-02-21T09:02:54;101107.88;;;10.08;100.00
54978;BME280;40873;47.522;19.106;2024-02-21T09:05:23;101103.88;;;10.19;100.00
54978;BME280;40873;47.522;19.106;2024-02-21T09:07:52;101092.13;;;10.26;100.00
54978;BME280;40873;47.522;19.106;2024-02-21T09:10:19;101103.94;;;10.36;100.00
54978;BME280;40873;47.522;19.106;2024-02-21T09:12:46;101107.94;;;10.81;100.00
54978;BME280;40873;47.522;19.106;2024-02-21T09:15:14;101104.03;;;11.07;100.00
54978;BME280;40873;47.522;19.106;2024-02-21T09:17:41;101098.88;;;11.21;100.00
54978;BME280;40873;47.522;19.106;2024-02-21T09:20:08;101102.53;;;11.18;100.00
54978;BME280;40873;47.522;19.106;2024-02-21T09:22:38;101096.63;;;10.96;100.00
54978;BME280;40873;47.522;19.106;2024-02-21T09:25:07;101095.38;;;10.86;100.00
54978;BME280;40873;47.522;19.106;2024-02-21T09:27:34;101105.94;;;10.86;100.00
54978;BME280;40873;47.522;19.106;2024-02-21T09:30:02;101100.88;;;10.81;100.00
54978;BME280;40873;47.522;19.106;2024-02-21T09:32:31;101106.41;;;10.94;100.00
54978;BME280;40873;47.522;19.106;2024-02-21T09:35:00;101102.41;;;10.68;100.00
54978;BME280;40873;47.522;19.106;2024-02-21T09:37:28;101117.00;;;10.58;100.00
54978;BME280;40873;47.522;19.106;2024-02-21T09:39:56;101103.66;;;10.42;100.00
54978;BME280;40873;47.522;19.106;2024-02-21T09:42:30;101112.22;;;10.28;100.00
54978;BME280;40873;47.522;19.106;2024-02-21T09:45:03;101104.31;;;10.47;100.00
54978;BME280;40873;47.522;19.106;2024-02-21T09:47:39;101108.72;;;10.83;100.00
54978;BME280;40873;47.522;19.106;2024-02-21T09:50:08;101101.38;;;11.07;100.00
54978;BME280;40873;47.522;19.106;2024-02-21T09:52:35;101093.53;;;11.22;100.00
54978;BME280;40873;47.522;19.106;2024-02-21T09:55:04;101104.19;;;11.54;100.00
54978;BME280;40873;47.522;19.106;2024-02-21T09:57:32;101097.59;;;11.45;100.00
54978;BME280;40873;47.522;19.106;2024-02-21T10:00:00;101098.66;;;11.76;99.10
54978;BME280;40873;47.522;19.106;2024-02-21T10:02:31;101100.84;;;12.17;94.16
54978;BME280;40873;47.522;19.106;2024-02-21T10:04:58;101107.50;;;12.08;94.95
54978;BME280;40873;47.522;19.106;2024-02-21T10:07:25;101086.47;;;12.38;93.90
54978;BME280;40873;47.522;19.106;2024-02-21T10:10:05;101090.25;;;12.64;92.74
54978;BME280;40873;47.522;19.106;2024-02-21T10:12:32;101087.75;;;13.23;88.41
54978;BME280;40873;47.522;19.106;2024-02-21T10:15:03;101084.06;;;12.95;89.13
54978;BME280;40873;47.522;19.106;2024-02-21T10:17:32;101077.50;;;13.16;88.77
54978;BME280;40873;47.522;19.106;2024-02-21T10:20:09;101069.34;;;13.35;83.86
54978;BME280;40873;47.522;19.106;2024-02-21T10:22:37;101074.16;;;13.29;82.13
54978;BME280;40873;47.522;19.106;2024-02-21T10:25:07;101072.47;;;13.56;84.67
54978;BME280;40873;47.522;19.106;2024-02-21T10:27:36;101069.06;;;13.68;85.50
54978;BME280;40873;47.522;19.106;2024-02-21T10:30:07;101065.03;;;14.45;83.74
54978;BME280;40873;47.522;19.106;2024-02-21T10:32:51;101060.97;;;14.54;81.90
54978;BME280;40873;47.522;19.106;2024-02-21T10:35:30;101052.31;;;15.17;80.26
54978;BME280;40873;47.522;19.106;2024-02-21T10:37:58;101056.09;;;14.34;80.96
54978;BME280;40873;47.522;19.106;2024-02-21T10:40:27;101055.41;;;13.75;82.38
54978;BME280;40873;47.522;19.106;2024-02-21T10:43:01;101045.91;;;13.28;84.83
54978;BME280;40873;47.522;19.106;2024-02-21T10:45:35;101041.81;;;12.78;87.47
54978;BME280;40873;47.522;19.106;2024-02-21T10:48:09;101034.47;;;12.53;91.31
54978;BME280;40873;47.522;19.106;2024-02-21T10:53:44;101018.28;;;12.12;91.69
54978;BME280;40873;47.522;19.106;2024-02-21T10:56:31;101028.00;;;12.11;90.58
54978;BME280;40873;47.522;19.106;2024-02-21T10:58:58;101023.41;;;11.99;91.75
54978;BME280;40873;47.522;19.106;2024-02-21T11:01:28;101018.13;;;11.83;92.65
54978;BME280;40873;47.522;19.106;2024-02-21T11:04:01;101011.78;;;11.86;94.08
54978;BME280;40873;47.522;19.106;2024-02-21T11:06:30;101011.03;;;11.84;92.94
54978;BME280;40873;47.522;19.106;2024-02-21T11:09:05;101007.75;;;11.78;92.57
54978;BME280;40873;47.522;19.106;2024-02-21T11:11:40;101007.63;;;11.97;92.06
54978;BME280;40873;47.522;19.106;2024-02-21T11:14:19;101002.34;;;13.17;86.47
54978;BME280;40873;47.522;19.106;2024-02-21T11:16:46;100987.06;;;13.65;81.85
54978;BME280;40873;47.522;19.106;2024-02-21T11:19:26;100984.22;;;14.64;78.34
54978;BME280;40873;47.522;19.106;2024-02-21T11:21:55;100986.34;;;14.44;77.53
54978;BME280;40873;47.522;19.106;2024-02-21T11:24:29;100978.19;;;13.93;79.66
54978;BME280;40873;47.522;19.106;2024-02-21T11:27:21;100982.00;;;13.04;81.36
54978;BME280;40873;47.522;19.106;2024-02-21T11:29:53;100980.88;;;12.63;83.14
54978;BME280;40873;47.522;19.106;2024-02-21T11:32:21;100968.19;;;12.24;84.81
54978;BME280;40873;47.522;19.106;2024-02-21T11:34:56;100967.88;;;11.99;86.34
54978;BME280;40873;47.522;19.106;2024-02-21T11:37:25;100971.38;;;11.84;87.10
54978;BME280;40873;47.522;19.106;2024-02-21T11:39:57;100962.63;;;11.66;88.78
54978;BME280;40873;47.522;19.106;2024-02-21T11:42:28;100966.50;;;11.92;87.28
54978;BME280;40873;47.522;19.106;2024-02-21T11:44:56;100966.06;;;11.99;85.24
54978;BME280;40873;47.522;19.106;2024-02-21T11:47:24;100955.53;;;12.29;85.38
54978;BME280;40873;47.522;19.106;2024-02-21T11:49:52;100956.53;;;12.43;83.67
54978;BME280;40873;47.522;19.106;2024-02-21T11:52:23;100954.41;;;12.33;80.88
54978;BME280;40873;47.522;19.106;2024-02-21T11:54:55;100951.47;;;12.54;80.78
54978;BME280;40873;47.522;19.106;2024-02-21T11:57:31;100949.09;;;12.63;79.71
54978;BME280;40873;47.522;19.106;2024-02-21T11:59:58;100957.06;;;13.36;77.85
54978;BME280;40873;47.522;19.106;2024-02-21T12:02:29;100949.19;;;13.63;76.89
54978;BME280;40873;47.522;19.106;2024-02-21T12:04:56;100946.81;;;13.16;78.81
54978;BME280;40873;47.522;19.106;2024-02-21T12:07:24;100948.75;;;12.70;80.04
54978;BME280;40873;47.522;19.106;2024-02-21T12:09:51;100943.34;;;12.27;81.83
54978;BME280;40873;47.522;19.106;2024-02-21T12:12:22;100938.75;;;12.15;84.16
54978;BME280;40873;47.522;19.106;2024-02-21T12:14:55;100938.84;;;12.13;84.14
54978;BME280;40873;47.522;19.106;2024-02-21T12:17:22;100939.53;;;12.01;84.85
54978;BME280;40873;47.522;19.106;2024-02-21T12:19:50;100940.81;;;11.78;85.00
54978;BME280;40873;47.522;19.106;2024-02-21T12:22:18;100938.81;;;11.83;86.04
54978;BME280;40873;47.522;19.106;2024-02-21T12:24:46;100937.16;;;11.80;86.80
54978;BME280;40873;47.522;19.106;2024-02-21T12:27:15;100931.66;;;11.68;85.99
54978;BME280;40873;47.522;19.106;2024-02-21T12:29:42;100924.59;;;11.52;86.35
54978;BME280;40873;47.522;19.106;2024-02-21T12:32:09;100924.50;;;11.38;86.21
54978;BME280;40873;47.522;19.106;2024-02-21T12:34:36;100932.22;;;11.25;85.72
54978;BME280;40873;47.522;19.106;2024-02-21T12:37:19;100918.25;;;11.23;87.04
54978;BME280;40873;47.522;19.106;2024-02-21T12:39:48;100923.41;;;11.27;85.85
54978;BME280;40873;47.522;19.106;2024-02-21T12:42:15;100923.41;;;11.27;88.77
54978;BME280;40873;47.522;19.106;2024-02-21T12:44:42;100918.88;;;11.29;83.87
54978;BME280;40873;47.522;19.106;2024-02-21T12:47:10;100911.28;;;11.22;83.48